createdAt,value
2018-03-02T00:02:09.930Z,-5.41
2018-03-02T00:04:38.308Z,-5.33
2018-03-02T00:07:06.652Z,-5.35
2018-03-02T00:09:35.304Z,-5.21
2018-03-02T00:12:04.424Z,-5.51
2018-03-02T00:14:32.742Z,-5.82
2018-03-02T00:17:01.469Z,-5.90
2018-03-02T00:19:29.799Z,-5.88
2018-03-02T00:21:58.121Z,-5.73
2018-03-02T00:24:27.270Z,-5.87
2018-03-02T00:26:55.594Z,-5.85
2018-03-02T00:29:23.942Z,-5.84
2018-03-02T00:31:52.325Z,-5.45
2018-03-02T00:34:20.643Z,-5.15
2018-03-02T00:36:48.947Z,-5.44
2018-03-02T00:39:17.803Z,-5.41
2018-03-02T00:41:46.143Z,-5.66
2018-03-02T00:44:14.472Z,-5.44
2018-03-02T00:46:42.805Z,-5.57
2018-03-02T00:49:11.152Z,-5.42
2018-03-02T00:51:39.476Z,-5.12
2018-03-02T00:54:07.840Z,-5.43
2018-03-02T00:56:36.150Z,-5.28
2018-03-02T00:59:05.220Z,-5.58
2018-03-02T01:01:33.725Z,-5.46
2018-03-02T01:04:02.069Z,-5.74
2018-03-02T01:06:31.176Z,-5.64
2018-03-02T01:08:59.521Z,-5.84
2018-03-02T01:11:27.875Z,-5.61
2018-03-02T01:13:56.189Z,-5.71
2018-03-02T01:16:24.518Z,-5.68
2018-03-02T01:18:52.872Z,-5.76
2018-03-02T01:21:21.196Z,-5.60
2018-03-02T01:23:49.751Z,-5.56
2018-03-02T01:26:18.101Z,-5.51
2018-03-02T01:28:46.436Z,-5.54
2018-03-02T01:31:14.802Z,-5.59
2018-03-02T01:33:43.922Z,-5.64
2018-03-02T01:36:12.249Z,-5.68
2018-03-02T01:38:40.614Z,-5.97
2018-03-02T01:41:08.933Z,-5.92
2018-03-02T01:43:38.013Z,-6.02
2018-03-02T01:46:06.452Z,-6.10
2018-03-02T01:48:34.844Z,-5.88
2018-03-02T01:51:03.150Z,-6.06
2018-03-02T01:53:31.490Z,-5.94
2018-03-02T01:55:59.801Z,-6.02
2018-03-02T01:58:28.109Z,-6.14
2018-03-02T02:00:56.443Z,-5.91
2018-03-02T02:03:24.816Z,-5.89
2018-03-02T02:05:53.155Z,-6.06
2018-03-02T02:08:21.990Z,-6.26
2018-03-02T02:10:50.350Z,-6.05
2018-03-02T02:13:18.656Z,-6.10
2018-03-02T02:15:47.008Z,-6.04
2018-03-02T02:18:15.520Z,-6.10
2018-03-02T02:20:43.849Z,-6.16
2018-03-02T02:23:12.229Z,-6.39
2018-03-02T02:25:40.533Z,-6.09
2018-03-02T02:28:08.857Z,-6.05
2018-03-02T02:30:38.262Z,-6.21
2018-03-02T02:33:07.354Z,-6.44
2018-03-02T02:35:36.428Z,-6.59
2018-03-02T02:38:04.967Z,-6.52
2018-03-02T02:40:33.322Z,-6.47
2018-03-02T02:43:01.658Z,-6.56
2018-03-02T02:45:30.018Z,-6.62
2018-03-02T02:47:58.365Z,-6.56
2018-03-02T02:50:26.670Z,-6.42
2018-03-02T02:52:55.249Z,-6.44
2018-03-02T02:55:23.563Z,-6.47
2018-03-02T02:57:51.869Z,-6.50
2018-03-02T03:00:20.998Z,-6.46
2018-03-02T03:02:49.325Z,-6.55
2018-03-02T03:05:17.730Z,-6.60
2018-03-02T03:07:46.082Z,-6.72
2018-03-02T03:10:14.408Z,-6.83
2018-03-02T03:12:42.740Z,-6.62
2018-03-02T03:15:11.284Z,-6.86
2018-03-02T03:17:39.590Z,-6.72
2018-03-02T03:20:07.912Z,-7.10
2018-03-02T03:22:36.252Z,-7.20
2018-03-02T03:25:04.663Z,-6.86
2018-03-02T03:27:33.018Z,-6.85
2018-03-02T03:30:01.360Z,-6.78
2018-03-02T03:32:29.704Z,-6.66
2018-03-02T03:34:58.058Z,-6.68
2018-03-02T03:37:26.560Z,-6.83
2018-03-02T03:39:55.628Z,-6.95
2018-03-02T03:42:23.953Z,-6.91
2018-03-02T03:44:52.272Z,-6.86
2018-03-02T03:47:20.592Z,-7.16
2018-03-02T03:49:48.912Z,-6.96
2018-03-02T03:52:17.257Z,-7.28
2018-03-02T03:54:45.569Z,-7.26
2018-03-02T03:57:13.912Z,-7.22
2018-03-02T03:59:42.849Z,-7.12
2018-03-02T04:02:11.959Z,-7.05
2018-03-02T04:04:40.298Z,-7.06
2018-03-02T04:07:08.674Z,-7.15
2018-03-02T04:09:37.008Z,-7.18
2018-03-02T04:12:06.094Z,-7.41
2018-03-02T04:14:34.422Z,-7.34
2018-03-02T04:17:02.748Z,-7.40
2018-03-02T04:19:31.088Z,-7.35
2018-03-02T04:22:00.033Z,-7.41
2018-03-02T04:24:29.141Z,-7.22
2018-03-02T04:26:58.224Z,-7.25
2018-03-02T04:29:27.351Z,-7.24
2018-03-02T04:31:55.687Z,-7.16
2018-03-02T04:34:23.997Z,-7.38
2018-03-02T04:36:52.349Z,-7.34
2018-03-02T04:39:20.681Z,-7.54
2018-03-02T04:41:49.029Z,-7.62
2018-03-02T04:44:17.545Z,-7.59
2018-03-02T04:46:45.858Z,-7.72
2018-03-02T04:49:14.194Z,-7.65
2018-03-02T04:51:42.573Z,-7.60
2018-03-02T04:54:10.892Z,-7.40
2018-03-02T04:56:39.226Z,-7.37
2018-03-02T04:59:07.558Z,-7.24
2018-03-02T05:01:35.858Z,-7.22
2018-03-02T05:04:04.227Z,-7.25
2018-03-02T05:06:33.839Z,-7.22
2018-03-02T05:09:02.937Z,-7.14
2018-03-02T05:11:31.276Z,-7.50
2018-03-02T05:13:59.621Z,-7.27
2018-03-02T05:16:27.930Z,-7.38
2018-03-02T05:18:56.253Z,-7.38
2018-03-02T05:21:25.424Z,-7.85
2018-03-02T05:23:53.753Z,-7.79
2018-03-02T05:26:22.052Z,-7.94
2018-03-02T05:28:51.068Z,-7.46
2018-03-02T05:31:19.408Z,-7.48
2018-03-02T05:33:47.738Z,-7.45
2018-03-02T05:36:16.063Z,-7.56
2018-03-02T05:38:44.368Z,-7.59
2018-03-02T05:41:12.687Z,-7.48
2018-03-02T05:43:42.178Z,-7.64
2018-03-02T05:46:10.507Z,-7.68
2018-03-02T05:48:38.808Z,-7.56
2018-03-02T05:51:07.733Z,-7.51
2018-03-02T05:53:36.057Z,-7.69
2018-03-02T05:56:04.389Z,-7.62
2018-03-02T05:58:33.506Z,-7.93
2018-03-02T06:01:02.570Z,-7.74
2018-03-02T06:03:45.595Z,-7.57
2018-03-02T06:06:13.896Z,-7.74
2018-03-02T06:08:42.996Z,-7.77
2018-03-02T06:11:12.577Z,-7.85
2018-03-02T06:13:40.916Z,-7.82
2018-03-02T06:16:09.241Z,-7.59
2018-03-02T06:18:37.570Z,-7.54
2018-03-02T06:21:05.914Z,-7.62
2018-03-02T06:23:34.231Z,-7.50
2018-03-02T06:26:02.579Z,-7.24
2018-03-02T06:28:30.904Z,-7.25
2018-03-02T06:30:59.210Z,-6.66
2018-03-02T06:33:28.842Z,-6.47
2018-03-02T06:35:57.906Z,-6.05
2018-03-02T06:38:26.239Z,-6.00
2018-03-02T06:40:54.586Z,-5.89
2018-03-02T06:43:23.681Z,-5.84
2018-03-02T06:45:52.019Z,-5.72
2018-03-02T06:48:20.358Z,-5.34
2018-03-02T06:50:48.689Z,-5.09
2018-03-02T06:53:17.006Z,-4.36
2018-03-02T06:55:46.717Z,-4.15
2018-03-02T06:58:15.041Z,-3.83
2018-03-02T07:00:43.346Z,-3.76
2018-03-02T07:03:11.685Z,-2.99
2018-03-02T07:05:40.029Z,-2.26
2018-03-02T07:08:08.370Z,-1.87
2018-03-02T07:10:36.712Z,-2.13
2018-03-02T07:13:05.048Z,-2.04
2018-03-02T07:15:33.385Z,-1.69
2018-03-02T07:18:01.976Z,-1.48
2018-03-02T07:20:30.306Z,-0.96
2018-03-02T07:22:58.617Z,0.01
2018-03-02T07:25:26.934Z,0.09
2018-03-02T07:27:55.236Z,0.50
2018-03-02T07:30:24.297Z,0.18
2018-03-02T07:32:52.644Z,1.13
2018-03-02T07:35:21.191Z,1.52
2018-03-02T07:37:49.668Z,1.17
2018-03-02T07:40:19.350Z,1.17
2018-03-02T07:42:48.063Z,0.86
2018-03-02T07:45:16.437Z,0.11
2018-03-02T07:47:45.624Z,0.43
2018-03-02T07:50:14.737Z,0.73
2018-03-02T07:52:43.062Z,1.28
2018-03-02T07:55:11.406Z,2.26
2018-03-02T07:57:39.772Z,1.88
2018-03-02T08:00:08.106Z,2.90
2018-03-02T08:02:36.725Z,3.01
2018-03-02T08:05:05.067Z,1.78
2018-03-02T08:07:33.393Z,2.28
2018-03-02T08:10:02.499Z,3.22
2018-03-02T08:12:31.566Z,2.47
2018-03-02T08:15:00.095Z,2.14
2018-03-02T08:17:28.458Z,3.61
2018-03-02T08:19:56.771Z,3.78
2018-03-02T08:22:25.102Z,5.08
2018-03-02T08:24:54.475Z,5.96
2018-03-02T08:27:22.810Z,6.04
2018-03-02T08:29:51.130Z,5.59
2018-03-02T08:32:19.486Z,5.35
2018-03-02T08:34:47.826Z,4.06
2018-03-02T08:37:16.898Z,5.30
2018-03-02T08:39:45.257Z,5.46
2018-03-02T08:42:13.559Z,6.50
2018-03-02T08:44:41.874Z,6.76
2018-03-02T08:47:10.615Z,7.06
2018-03-02T08:49:38.949Z,6.57
2018-03-02T08:52:07.280Z,7.52
2018-03-02T08:54:36.421Z,6.64
2018-03-02T08:57:04.748Z,7.60
2018-03-02T08:59:33.077Z,6.38
2018-03-02T09:02:01.427Z,6.07
2018-03-02T09:04:30.589Z,7.28
2018-03-02T09:06:59.159Z,6.52
2018-03-02T09:09:28.822Z,6.18
2018-03-02T09:11:57.144Z,6.76
2018-03-02T09:14:25.456Z,6.27
2018-03-02T09:16:53.782Z,6.44
2018-03-02T09:19:22.112Z,5.33
2018-03-02T09:21:50.444Z,6.74
2018-03-02T09:24:18.787Z,7.92
2018-03-02T09:26:47.874Z,8.40
2018-03-02T09:29:16.962Z,9.39
2018-03-02T09:31:46.585Z,8.25
2018-03-02T09:34:14.922Z,8.90
2018-03-02T09:36:43.242Z,10.31
2018-03-02T09:39:12.334Z,9.43
2018-03-02T09:41:40.695Z,10.63
2018-03-02T09:44:09.817Z,11.31
2018-03-02T09:49:12.754Z,11.98
2018-03-02T09:51:41.390Z,13.64
2018-03-02T09:54:09.717Z,13.76
2018-03-02T09:56:38.021Z,12.43
2018-03-02T09:59:06.363Z,12.01
2018-03-02T10:01:34.749Z,11.54
2018-03-02T10:04:03.094Z,12.73
2018-03-02T10:06:32.229Z,9.98
2018-03-02T10:09:00.567Z,11.60
2018-03-02T10:11:28.933Z,13.29
2018-03-02T10:13:57.554Z,11.06
2018-03-02T10:16:25.872Z,10.25
2018-03-02T10:18:54.982Z,9.93
2018-03-02T10:21:23.353Z,9.65
2018-03-02T10:23:51.652Z,9.29
2018-03-02T10:26:19.976Z,10.48
2018-03-02T10:28:48.357Z,11.16
2018-03-02T10:31:16.675Z,11.20
2018-03-02T10:33:45.026Z,10.31
2018-03-02T10:36:13.683Z,9.84
2018-03-02T10:38:42.048Z,9.51
2018-03-02T10:41:10.363Z,9.07
2018-03-02T10:43:39.036Z,9.58
2018-03-02T10:46:07.373Z,9.79
2018-03-02T10:48:36.468Z,11.19
2018-03-02T10:51:04.856Z,10.31
2018-03-02T10:53:33.950Z,9.39
2018-03-02T10:56:03.036Z,10.67
2018-03-02T10:58:31.836Z,10.14
2018-03-02T11:01:06.422Z,11.79
2018-03-02T11:03:34.757Z,11.21
2018-03-02T11:06:03.062Z,10.31
2018-03-02T11:08:31.374Z,10.19
2018-03-02T11:10:59.732Z,11.56
2018-03-02T11:13:28.093Z,12.54
2018-03-02T11:15:56.425Z,14.41
2018-03-02T11:18:24.883Z,14.91
2018-03-02T11:20:53.207Z,15.37
2018-03-02T11:23:22.318Z,15.16
2018-03-02T11:25:50.658Z,14.91
2018-03-02T11:28:18.954Z,13.49
2018-03-02T11:30:47.249Z,13.37
2018-03-02T11:33:15.597Z,15.13
2018-03-02T11:35:44.670Z,15.17
2018-03-02T11:38:12.975Z,15.62
2018-03-02T11:40:42.252Z,14.54
2018-03-02T11:43:10.542Z,13.63
2018-03-02T11:45:38.890Z,15.28
2018-03-02T11:48:07.234Z,13.10
2018-03-02T11:50:35.564Z,11.04
2018-03-02T11:53:03.868Z,12.90
2018-03-02T11:55:32.981Z,11.94
2018-03-02T11:58:01.333Z,12.62
2018-03-02T12:00:29.668Z,11.99
2018-03-02T12:02:58.302Z,12.51
2018-03-02T12:05:27.524Z,12.74
2018-03-02T12:07:55.888Z,12.63
2018-03-02T12:10:25.048Z,12.71
2018-03-02T12:12:53.409Z,10.58
2018-03-02T12:15:23.336Z,10.38
2018-03-02T12:17:51.677Z,10.62
2018-03-02T12:20:19.988Z,11.38
2018-03-02T12:22:48.367Z,12.03
2018-03-02T12:25:16.791Z,11.88
2018-03-02T12:27:45.903Z,12.21
2018-03-02T12:30:14.217Z,11.16
2018-03-02T12:32:42.601Z,9.12
2018-03-02T12:35:10.928Z,9.55
2018-03-02T12:37:40.047Z,9.91
2018-03-02T12:40:08.441Z,11.43
2018-03-02T12:42:36.770Z,11.71
2018-03-02T12:45:05.131Z,11.05
2018-03-02T12:47:33.703Z,12.08
2018-03-02T12:50:02.008Z,13.68
2018-03-02T12:52:30.344Z,12.75
2018-03-02T12:54:58.684Z,12.24
2018-03-02T12:57:27.001Z,12.21
2018-03-02T12:59:55.335Z,12.88
2018-03-02T13:02:23.671Z,11.42
2018-03-02T13:04:52.000Z,11.62
2018-03-02T13:07:20.317Z,13.04
2018-03-02T13:09:49.156Z,13.37
2018-03-02T13:12:17.512Z,12.92
2018-03-02T13:14:45.864Z,12.89
2018-03-02T13:17:14.243Z,13.57
2018-03-02T13:19:42.592Z,11.63
2018-03-02T13:22:43.269Z,11.59
2018-03-02T13:25:11.613Z,12.82
2018-03-02T13:27:57.688Z,13.04
2018-03-02T13:30:26.768Z,13.50
2018-03-02T13:33:12.822Z,14.83
2018-03-02T13:35:41.182Z,15.26
2018-03-02T13:38:09.558Z,15.23
2018-03-02T13:40:55.664Z,14.36
2018-03-02T13:43:23.980Z,13.87
2018-03-02T13:45:52.322Z,13.64
2018-03-02T13:48:47.440Z,13.82
2018-03-02T13:51:15.760Z,13.39
2018-03-02T13:53:44.101Z,12.71
2018-03-02T13:56:30.034Z,13.37
2018-03-02T13:58:59.136Z,13.35
2018-03-02T14:01:27.480Z,13.15
2018-03-02T14:04:13.614Z,11.73
2018-03-02T14:06:42.721Z,12.51
2018-03-02T14:09:11.050Z,12.48
2018-03-02T14:11:39.429Z,12.22
2018-03-02T14:14:07.749Z,12.78
2018-03-02T14:16:36.823Z,12.56
2018-03-02T14:19:05.148Z,12.72
2018-03-02T14:21:33.534Z,12.36
2018-03-02T14:24:01.877Z,11.86
2018-03-02T14:26:31.479Z,12.13
2018-03-02T14:28:59.853Z,11.33
2018-03-02T14:31:31.411Z,12.56
2018-03-02T14:34:00.505Z,12.54
2018-03-02T14:36:29.585Z,12.44
2018-03-02T14:38:57.927Z,11.27
2018-03-02T14:41:26.265Z,10.87
2018-03-02T14:43:55.373Z,11.35
2018-03-02T14:46:23.778Z,11.74
2018-03-02T14:48:52.342Z,11.58
2018-03-02T14:51:20.728Z,11.61
2018-03-02T14:53:49.065Z,11.19
2018-03-02T14:56:17.397Z,10.53
2018-03-02T14:58:45.728Z,10.57
2018-03-02T15:01:14.063Z,9.75
2018-03-02T15:03:42.375Z,10.16
2018-03-02T15:06:10.688Z,9.29
2018-03-02T15:08:39.112Z,9.33
2018-03-02T15:11:07.409Z,8.46
2018-03-02T15:13:35.710Z,8.33
2018-03-02T15:16:04.064Z,8.33
2018-03-02T15:18:32.388Z,9.16
2018-03-02T15:21:00.698Z,9.15
2018-03-02T15:23:29.030Z,9.19
2018-03-02T15:25:57.351Z,8.31
2018-03-02T15:28:25.680Z,8.13
2018-03-02T15:30:55.303Z,7.27
2018-03-02T15:33:23.629Z,7.31
2018-03-02T15:35:51.963Z,6.63
2018-03-02T15:38:20.303Z,5.77
2018-03-02T15:40:48.689Z,5.22
2018-03-02T15:43:17.049Z,4.54
2018-03-02T15:45:45.404Z,5.27
2018-03-02T15:48:13.749Z,5.02
2018-03-02T15:50:42.213Z,4.35
2018-03-02T15:53:11.471Z,3.50
2018-03-02T15:55:40.576Z,2.89
2018-03-02T15:58:08.952Z,2.54
2018-03-02T16:00:37.333Z,2.29
2018-03-02T16:03:05.650Z,1.90
2018-03-02T16:05:34.762Z,1.59
2018-03-02T16:08:03.897Z,1.21
2018-03-02T16:10:32.237Z,1.01
2018-03-02T16:13:00.576Z,0.96
2018-03-02T16:15:29.108Z,1.05
2018-03-02T16:17:57.410Z,0.94
2018-03-02T16:20:25.704Z,0.66
2018-03-02T16:22:54.062Z,0.45
2018-03-02T16:25:22.396Z,0.31
2018-03-02T16:27:51.482Z,0.48
2018-03-02T16:30:19.825Z,0.34
2018-03-02T16:32:48.173Z,0.31
2018-03-02T16:35:16.516Z,0.00
2018-03-02T16:37:45.310Z,-0.25
2018-03-02T16:40:14.457Z,-0.19
2018-03-02T16:42:42.856Z,-0.07
2018-03-02T16:45:11.199Z,-0.21
2018-03-02T16:47:39.533Z,-0.31
2018-03-02T16:50:07.868Z,-0.85
2018-03-02T16:52:36.318Z,-0.82
2018-03-02T16:55:05.448Z,-0.75
2018-03-02T16:57:33.889Z,-0.69
2018-03-02T17:00:03.666Z,-0.74
2018-03-02T17:02:31.999Z,-0.60
2018-03-02T17:05:00.322Z,-0.64
2018-03-02T17:07:28.664Z,-0.74
2018-03-02T17:09:57.007Z,-0.96
2018-03-02T17:12:26.425Z,-0.78
2018-03-02T17:14:55.553Z,-0.89
2018-03-02T17:17:23.885Z,-1.04
2018-03-02T17:19:52.278Z,-1.27
2018-03-02T17:22:21.447Z,-1.41
2018-03-02T17:24:49.833Z,-1.45
2018-03-02T17:27:18.195Z,-1.33
2018-03-02T17:29:46.533Z,-1.33
2018-03-02T17:32:14.873Z,-1.62
2018-03-02T17:34:43.234Z,-1.61
2018-03-02T17:37:11.590Z,-1.97
2018-03-02T17:39:39.906Z,-1.92
2018-03-02T17:42:08.242Z,-2.03
2018-03-02T17:44:36.639Z,-2.23
2018-03-02T17:47:04.983Z,-2.05
2018-03-02T17:49:33.325Z,-1.89
2018-03-02T17:52:01.687Z,-2.06
2018-03-02T17:54:30.768Z,-2.16
2018-03-02T17:56:59.098Z,-2.08
2018-03-02T17:59:28.225Z,-2.01
2018-03-02T18:01:56.558Z,-2.19
2018-03-02T18:04:24.865Z,-2.50
2018-03-02T18:06:53.769Z,-2.47
2018-03-02T18:09:22.097Z,-2.40
2018-03-02T18:11:50.436Z,-2.56
2018-03-02T18:14:18.900Z,-2.88
2018-03-02T18:16:47.224Z,-2.83
2018-03-02T18:19:15.557Z,-2.81
2018-03-02T18:21:44.693Z,-2.81
2018-03-02T18:24:13.018Z,-3.01
2018-03-02T18:26:42.101Z,-2.89
2018-03-02T18:29:11.418Z,-2.80
2018-03-02T18:31:39.785Z,-3.05
2018-03-02T18:34:08.235Z,-3.05
2018-03-02T18:36:36.644Z,-3.10
2018-03-02T18:39:05.748Z,-2.94
2018-03-02T18:41:34.977Z,-3.09
2018-03-02T18:44:03.327Z,-3.13
2018-03-02T18:46:32.423Z,-3.18
2018-03-02T18:49:01.565Z,-3.06
2018-03-02T18:51:30.005Z,-3.23
2018-03-02T18:53:59.066Z,-3.24
2018-03-02T18:56:27.394Z,-3.40
2018-03-02T18:58:55.726Z,-3.52
2018-03-02T19:01:24.042Z,-3.39
2018-03-02T19:03:52.360Z,-3.62
2018-03-02T19:06:20.701Z,-3.34
2018-03-02T19:08:49.053Z,-3.22
2018-03-02T19:11:18.131Z,-3.04
2018-03-02T19:13:47.234Z,-3.07
2018-03-02T19:16:15.611Z,-3.21
2018-03-02T19:18:44.735Z,-3.44
2018-03-02T19:21:13.853Z,-3.63
2018-03-02T19:23:42.196Z,-3.47
2018-03-02T19:26:10.532Z,-3.50
2018-03-02T19:28:38.914Z,-3.51
2018-03-02T19:31:07.286Z,-3.70
2018-03-02T19:33:35.635Z,-3.88
2018-03-02T19:36:05.029Z,-3.83
2018-03-02T19:38:34.102Z,-4.08
2018-03-02T19:41:02.424Z,-4.02
2018-03-02T19:43:30.778Z,-3.97
2018-03-02T19:45:59.907Z,-3.77
2018-03-02T19:48:28.276Z,-4.07
2018-03-02T19:50:56.641Z,-4.03
2018-03-02T19:53:25.748Z,-4.16
2018-03-02T19:55:54.104Z,-4.15
2018-03-02T19:58:22.746Z,-4.18
2018-03-02T20:00:52.637Z,-4.19
2018-03-02T20:03:21.029Z,-4.18
2018-03-02T20:05:49.489Z,-4.11
2018-03-02T20:08:17.954Z,-4.16
2018-03-02T20:10:46.280Z,-4.32
2018-03-02T20:13:14.648Z,-4.26
2018-03-02T20:15:43.053Z,-4.52
2018-03-02T20:18:11.371Z,-4.56
2018-03-02T20:20:40.759Z,-4.51
2018-03-02T20:23:09.089Z,-4.41
2018-03-02T20:25:37.427Z,-4.62
2018-03-02T20:28:07.077Z,-4.58
2018-03-02T20:30:35.426Z,-4.63
2018-03-02T20:33:03.774Z,-4.63
2018-03-02T20:35:32.449Z,-4.63
2018-03-02T20:38:00.878Z,-4.62
2018-03-02T20:40:29.210Z,-4.59
2018-03-02T20:42:57.818Z,-4.73
2018-03-02T20:45:26.945Z,-4.71
2018-03-02T20:47:55.300Z,-4.43
2018-03-02T20:50:24.402Z,-4.77
2018-03-02T20:52:52.734Z,-4.75
2018-03-02T20:55:21.064Z,-4.82
2018-03-02T20:57:49.432Z,-4.65
2018-03-02T21:00:17.756Z,-4.64
2018-03-02T21:02:46.115Z,-4.52
2018-03-02T21:05:14.570Z,-4.68
2018-03-02T21:07:43.677Z,-4.94
2018-03-02T21:10:12.018Z,-4.68
2018-03-02T21:12:40.403Z,-4.62
2018-03-02T21:15:09.044Z,-4.80
2018-03-02T21:17:37.365Z,-4.72
2018-03-02T21:20:05.748Z,-4.62
2018-03-02T21:22:34.121Z,-4.56
2018-03-02T21:25:02.446Z,-4.53
2018-03-02T21:27:30.869Z,-4.84
2018-03-02T21:29:59.957Z,-4.97
2018-03-02T21:32:28.281Z,-4.84
2018-03-02T21:34:57.454Z,-4.78
2018-03-02T21:37:25.761Z,-4.71
2018-03-02T21:39:54.150Z,-4.70
2018-03-02T21:42:22.485Z,-4.87
2018-03-02T21:44:50.850Z,-4.72
2018-03-02T21:47:19.158Z,-4.73
2018-03-02T21:49:47.668Z,-4.97
2018-03-02T21:52:16.052Z,-4.89
2018-03-02T21:54:44.349Z,-5.04
2018-03-02T21:57:12.727Z,-5.01
2018-03-02T21:59:41.031Z,-5.00
2018-03-02T22:02:09.363Z,-4.96
2018-03-02T22:04:37.778Z,-5.07
2018-03-02T22:07:06.090Z,-5.24
2018-03-02T22:09:34.480Z,-5.24
2018-03-02T22:12:03.745Z,-5.47
2018-03-02T22:14:32.083Z,-5.25
2018-03-02T22:17:01.217Z,-5.25
2018-03-02T22:19:29.598Z,-5.47
2018-03-02T22:21:57.955Z,-5.20
2018-03-02T22:24:26.389Z,-5.35
2018-03-02T22:26:54.777Z,-5.34
2018-03-02T22:29:23.157Z,-5.14
2018-03-02T22:31:52.256Z,-5.32
2018-03-02T22:34:21.422Z,-5.24
2018-03-02T22:36:49.762Z,-5.43
2018-03-02T22:39:18.103Z,-5.52
2018-03-02T22:41:47.215Z,-5.41
2018-03-02T22:44:15.557Z,-5.58
2018-03-02T22:46:43.907Z,-5.33
2018-03-02T22:49:12.263Z,-5.45
2018-03-02T22:51:40.610Z,-5.54
2018-03-02T22:54:08.969Z,-5.51
2018-03-02T22:56:37.430Z,-5.16
2018-03-02T22:59:05.756Z,-5.14
2018-03-02T23:01:34.880Z,-5.22
2018-03-02T23:04:03.252Z,-5.32
2018-03-02T23:06:31.592Z,-5.40
2018-03-02T23:08:59.921Z,-5.31
2018-03-02T23:11:28.280Z,-5.17
2018-03-02T23:13:56.649Z,-5.34
2018-03-02T23:16:25.762Z,-5.43
2018-03-02T23:18:54.988Z,-5.23
2018-03-02T23:21:23.327Z,-5.42
2018-03-02T23:23:52.434Z,-5.41
2018-03-02T23:26:20.787Z,-5.62
2018-03-02T23:28:49.140Z,-5.59
2018-03-02T23:31:17.467Z,-5.66
2018-03-02T23:33:45.816Z,-5.41
2018-03-02T23:36:14.141Z,-5.31
2018-03-02T23:38:42.462Z,-5.38
2018-03-02T23:41:10.876Z,-5.26
2018-03-02T23:43:39.981Z,-5.28
2018-03-02T23:46:08.322Z,-5.38
2018-03-02T23:48:36.692Z,-5.18
2018-03-02T23:51:05.022Z,-5.32
2018-03-02T23:53:33.345Z,-5.44
2018-03-02T23:56:01.690Z,-5.28
2018-03-02T23:58:30.016Z,-5.42
